Time;durP1;ratioP1;P1;durP2;ratioP2;P2;SDS_P1;SDS_P2;PMS_P1;PMS_P2;Temp;Humidity;BMP_temperature;BMP_pressure;BME280_temperature;BME280_humidity;BME280_pressure;Samples;Min_cycle;Max_cycle;Signal;HPM_P1;HPM_P2
2022/11/01 00:01:59;;;;;;;15.43;6.78;;;13.70;99.90;;;;;;5097291;28;20027;-83
2022/11/01 00:04:25;;;;;;;13.68;7.00;;;13.70;99.90;;;;;;5097717;28;20024;-82
2022/11/01 00:06:51;;;;;;;13.00;6.78;;;13.70;99.90;;;;;;5083122;28;20040;-84
2022/11/01 00:09:16;;;;;;;11.32;6.35;;;13.70;99.90;;;;;;5093142;28;20480;-83
2022/11/01 00:11:42;;;;;;;12.15;6.20;;;13.70;99.90;;;;;;5095985;28;20028;-83
2022/11/01 00:14:11;;;;;;;12.95;6.60;;;13.70;99.90;;;;;;5094922;28;20024;-83
2022/11/01 00:16:37;;;;;;;17.08;7.55;;;13.70;99.90;;;;;;5104692;28;20038;-79
2022/11/01 00:19:02;;;;;;;15.50;7.35;;;13.70;99.90;;;;;;5116004;28;20020;-82
2022/11/01 00:21:28;;;;;;;14.68;7.50;;;13.80;99.90;;;;;;5098127;28;20030;-83
2022/11/01 00:23:53;;;;;;;17.23;7.60;;;13.80;99.90;;;;;;5097295;28;20084;-83
2022/11/01 00:26:22;;;;;;;14.82;6.65;;;13.80;99.90;;;;;;5115848;28;20036;-83
2022/11/01 00:28:48;;;;;;;14.07;6.55;;;13.80;99.90;;;;;;5097119;28;20048;-83
2022/11/01 00:31:16;;;;;;;15.02;7.07;;;13.80;99.90;;;;;;5098249;28;20059;-83
2022/11/01 00:33:41;;;;;;;14.48;7.10;;;13.80;99.90;;;;;;5097521;28;20492;-82
2022/11/01 00:36:08;;;;;;;12.70;7.32;;;13.80;99.90;;;;;;5115843;28;20151;-83
2022/11/01 00:38:34;;;;;;;17.38;7.47;;;13.80;99.90;;;;;;5097802;28;20496;-83
2022/11/01 00:41:01;;;;;;;11.70;6.65;;;13.80;99.90;;;;;;5115653;28;20028;-83
2022/11/01 00:43:27;;;;;;;14.52;7.57;;;13.80;99.90;;;;;;5097631;28;20031;-82
2022/11/01 00:45:52;;;;;;;11.13;7.10;;;13.80;99.90;;;;;;5077898;28;20035;-82
2022/11/01 00:48:18;;;;;;;12.25;6.60;;;13.80;99.90;;;;;;5077373;28;20051;-82
2022/11/01 00:50:44;;;;;;;17.00;7.32;;;13.80;99.90;;;;;;5076623;28;20020;-82
2022/11/01 00:53:11;;;;;;;12.77;7.30;;;13.80;99.90;;;;;;5077129;28;20020;-82
2022/11/01 00:55:37;;;;;;;16.15;7.13;;;13.80;99.90;;;;;;5076568;28;20032;-79
2022/11/01 00:58:02;;;;;;;11.82;6.57;;;13.80;99.90;;;;;;5076759;28;20077;-82
2022/11/01 01:00:28;;;;;;;12.85;6.82;;;13.90;99.90;;;;;;5077057;28;20028;-85
2022/11/01 01:02:54;;;;;;;16.80;7.55;;;13.80;99.90;;;;;;5094304;28;20028;-85
2022/11/01 01:05:20;;;;;;;12.02;6.68;;;13.80;99.90;;;;;;5077040;28;20036;-84
2022/11/01 01:07:45;;;;;;;11.30;6.50;;;13.80;99.90;;;;;;5076487;28;20466;-84
2022/11/01 01:10:11;;;;;;;12.45;7.70;;;13.80;99.90;;;;;;5076835;28;20024;-85
2022/11/01 01:12:37;;;;;;;11.45;6.55;;;13.80;99.90;;;;;;5077091;28;20024;-81
2022/11/01 01:15:03;;;;;;;17.25;7.20;;;13.80;99.90;;;;;;5076372;28;20027;-84
2022/11/01 01:17:31;;;;;;;19.20;7.05;;;13.80;99.90;;;;;;5077147;28;20024;-82
2022/11/01 01:19:56;;;;;;;12.10;6.53;;;13.80;99.90;;;;;;5076174;28;20032;-82
2022/11/01 01:22:22;;;;;;;14.80;7.18;;;13.80;99.90;;;;;;5094675;28;20484;-83
2022/11/01 01:24:47;;;;;;;18.15;6.80;;;13.80;99.90;;;;;;5076103;28;20222;-84
2022/11/01 01:27:14;;;;;;;14.00;7.53;;;13.80;99.90;;;;;;5094523;28;20092;-82
2022/11/01 01:29:44;;;;;;;12.85;6.90;;;13.80;99.90;;;;;;5094158;28;20128;-81
2022/11/01 01:32:15;;;;;;;12.85;6.72;;;13.80;99.90;;;;;;5076654;28;20078;-83
2022/11/01 01:34:41;;;;;;;12.77;6.85;;;13.80;99.90;;;;;;5076133;28;20061;-79
2022/11/01 01:37:10;;;;;;;18.45;7.60;;;13.80;99.90;;;;;;5076336;28;20119;-83
2022/11/01 01:39:37;;;;;;;13.23;7.53;;;13.80;99.90;;;;;;5094337;28;20084;-83
2022/11/01 01:42:22;;;;;;;14.75;7.40;;;13.90;99.90;;;;;;5075298;28;20097;-83
2022/11/01 01:44:51;;;;;;;12.93;7.10;;;13.80;99.90;;;;;;5075705;28;20067;-86
2022/11/01 01:47:19;;;;;;;13.43;6.85;;;13.90;99.90;;;;;;5076343;28;20028;-86
2022/11/01 01:49:47;;;;;;;14.65;6.70;;;13.90;99.90;;;;;;5075792;28;20434;-85
2022/11/01 01:52:13;;;;;;;18.73;7.82;;;13.90;99.90;;;;;;5094121;28;20031;-84
2022/11/01 01:54:39;;;;;;;11.00;7.25;;;13.90;99.90;;;;;;5076061;28;20028;-85
2022/11/01 01:57:05;;;;;;;11.10;6.40;;;13.90;99.90;;;;;;5075522;28;20081;-85
2022/11/01 01:59:32;;;;;;;17.60;7.05;;;13.90;99.90;;;;;;5094089;28;20024;-84
2022/11/01 02:01:58;;;;;;;10.98;6.60;;;13.90;99.90;;;;;;5075524;28;20047;-84
2022/11/01 02:04:31;;;;;;;12.27;6.22;;;13.90;99.90;;;;;;5075797;28;20024;-84
2022/11/01 02:06:58;;;;;;;12.82;6.70;;;13.90;99.90;;;;;;5074887;28;20042;-85
2022/11/01 02:09:24;;;;;;;13.85;6.68;;;13.90;99.90;;;;;;5076027;28;20461;-84
2022/11/01 02:11:49;;;;;;;13.35;6.47;;;13.90;99.90;;;;;;5075384;28;20081;-85
2022/11/01 02:14:16;;;;;;;11.50;6.57;;;13.90;99.90;;;;;;5076045;28;20461;-84
2022/11/01 02:17:11;;;;;;;13.93;6.20;;;13.90;99.90;;;;;;5075772;28;20461;-81
2022/11/01 02:19:55;;;;;;;14.00;6.03;;;13.90;99.90;;;;;;5076185;28;20107;-84
2022/11/01 02:22:58;;;;;;;10.85;6.10;;;13.90;99.90;;;;;;5076036;28;20024;-84
2022/11/01 02:25:48;;;;;;;13.98;6.68;;;13.70;99.90;;;;;;5075881;28;20028;-84
2022/11/01 02:28:44;;;;;;;12.90;6.43;;;13.70;99.90;;;;;;5075619;28;20032;-83
2022/11/01 02:31:29;;;;;;;12.95;6.00;;;13.70;99.90;;;;;;5073068;28;20535;-84
2022/11/01 02:34:03;;;;;;;14.13;6.07;;;13.70;99.90;;;;;;5055301;28;20036;-84
2022/11/01 02:36:42;;;;;;;14.35;6.80;;;13.70;99.90;;;;;;5073639;28;20028;-84
2022/11/01 02:39:11;;;;;;;9.65;6.13;;;13.70;99.90;;;;;;5055110;28;20032;-83
2022/11/01 02:41:47;;;;;;;13.27;6.30;;;13.80;99.90;;;;;;5056007;28;20048;-86
2022/11/01 02:44:21;;;;;;;14.43;6.60;;;13.80;99.90;;;;;;5056045;28;20024;-87
2022/11/01 02:47:00;;;;;;;15.32;7.03;;;13.90;99.90;;;;;;5055100;28;20038;-82
2022/11/01 02:49:35;;;;;;;14.88;7.25;;;13.90;99.90;;;;;;5055986;28;20028;-87
2022/11/01 02:52:02;;;;;;;14.75;6.65;;;13.90;99.90;;;;;;5054481;28;20024;-87
2022/11/01 02:54:37;;;;;;;13.13;6.88;;;14.00;99.90;;;;;;5055497;28;20096;-87
2022/11/01 02:57:17;;;;;;;16.70;7.85;;;14.00;99.90;;;;;;5054846;28;20143;-85
2022/11/01 02:59:45;;;;;;;12.75;6.43;;;14.00;99.90;;;;;;5055435;28;20489;-84
2022/11/01 03:02:40;;;;;;;16.98;7.38;;;14.00;99.90;;;;;;5054980;28;20523;-87
2022/11/01 03:05:11;;;;;;;13.50;6.57;;;14.00;99.90;;;;;;5054633;28;20031;-86
2022/11/01 03:07:40;;;;;;;13.93;6.75;;;14.00;99.90;;;;;;5073163;28;20040;-86
2022/11/01 03:10:06;;;;;;;12.18;7.07;;;14.00;99.90;;;;;;5054779;28;20048;-85
2022/11/01 03:12:39;;;;;;;16.48;7.20;;;14.00;99.90;;;;;;5073165;28;20072;-86
2022/11/01 03:15:19;;;;;;;14.50;7.03;;;14.10;99.90;;;;;;5072356;28;20206;-87
2022/11/01 03:18:25;;;;;;;17.60;7.72;;;14.00;99.90;;;;;;5074080;28;20024;-81
2022/11/01 03:21:14;;;;;;;13.27;6.85;;;14.00;99.90;;;;;;4959138;28;20061;-87
2022/11/01 03:23:48;;;;;;;12.80;6.90;;;14.00;99.90;;;;;;5075474;28;20037;-88
2022/11/01 03:26:19;;;;;;;12.93;6.82;;;14.00;99.90;;;;;;5058876;28;20036;-83
2022/11/01 03:28:50;;;;;;;16.03;6.77;;;14.00;99.90;;;;;;5061443;28;20033;-78
2022/11/01 03:31:21;;;;;;;17.58;6.85;;;14.00;99.90;;;;;;5079090;28;20036;-82
2022/11/01 03:33:52;;;;;;;11.23;7.32;;;14.00;99.90;;;;;;5078558;28;20060;-81
2022/11/01 03:36:21;;;;;;;12.13;6.97;;;14.00;99.90;;;;;;5079186;28;20066;-86
2022/11/01 03:38:56;;;;;;;14.82;7.47;;;14.00;99.90;;;;;;5096366;28;20032;-81
2022/11/01 03:41:24;;;;;;;15.43;7.40;;;14.00;99.90;;;;;;5087044;28;20115;-84
2022/11/01 03:43:51;;;;;;;14.18;6.93;;;14.00;99.90;;;;;;5098228;28;20027;-81
2022/11/01 03:46:17;;;;;;;12.75;7.28;;;14.10;99.90;;;;;;5098860;28;20027;-84
2022/11/01 03:48:42;;;;;;;16.05;8.23;;;14.00;99.90;;;;;;5098807;28;20031;-84
2022/11/01 03:51:08;;;;;;;15.85;8.23;;;14.00;99.90;;;;;;5098046;28;20027;-84
2022/11/01 03:53:34;;;;;;;15.43;8.23;;;14.00;99.90;;;;;;5116651;28;20031;-83
2022/11/01 03:56:00;;;;;;;19.17;8.75;;;14.00;99.90;;;;;;5098134;28;20027;-83
2022/11/01 03:58:40;;;;;;;18.95;9.95;;;13.90;99.90;;;;;;5098676;28;20024;-84
2022/11/01 04:01:07;;;;;;;18.48;8.93;;;13.90;99.90;;;;;;5097960;28;20059;-83
2022/11/01 04:03:32;;;;;;;15.88;8.80;;;13.90;99.90;;;;;;5098597;28;20030;-84
2022/11/01 04:05:58;;;;;;;21.48;9.25;;;13.80;99.90;;;;;;5097689;28;20035;-83
2022/11/01 04:08:23;;;;;;;17.08;8.75;;;13.80;99.90;;;;;;5116486;28;20038;-84
2022/11/01 04:10:49;;;;;;;17.77;7.95;;;13.80;99.90;;;;;;5098453;28;20414;-79
2022/11/01 04:13:14;;;;;;;15.77;8.05;;;13.90;99.90;;;;;;5098080;28;20030;-84
2022/11/01 04:21:09;;;;;;;13.55;7.50;;;13.90;99.90;;;;;;5115418;28;20046;-86
2022/11/01 04:23:35;;;;;;;19.33;7.38;;;13.90;99.90;;;;;;5098232;28;20027;-86
2022/11/01 04:26:02;;;;;;;18.20;7.28;;;14.00;99.90;;;;;;5097609;28;20027;-86
2022/11/01 04:28:28;;;;;;;13.55;7.47;;;14.00;99.90;;;;;;5097915;28;20119;-86
2022/11/01 04:30:53;;;;;;;14.60;7.05;;;14.00;99.90;;;;;;5097748;28;20115;-85
2022/11/01 04:33:19;;;;;;;13.05;7.18;;;14.00;99.90;;;;;;5098128;28;20024;-86
2022/11/01 04:35:45;;;;;;;14.25;7.32;;;14.00;99.90;;;;;;5097880;28;20038;-84
2022/11/01 04:38:12;;;;;;;16.20;7.30;;;14.00;99.90;;;;;;5097328;28;20468;-84
2022/11/01 04:40:38;;;;;;;13.30;7.32;;;14.00;99.90;;;;;;5097990;28;20031;-83
2022/11/01 04:43:04;;;;;;;15.25;7.03;;;13.90;99.90;;;;;;5115193;28;20024;-83
2022/11/01 04:45:29;;;;;;;16.67;7.25;;;14.00;99.90;;;;;;5115764;28;20081;-83
2022/11/01 04:48:05;;;;;;;17.70;7.60;;;13.90;99.90;;;;;;5097011;28;20027;-84
2022/11/01 04:50:31;;;;;;;16.40;7.55;;;13.90;99.90;;;;;;5116058;28;20031;-85
2022/11/01 04:52:58;;;;;;;16.25;6.78;;;13.90;99.90;;;;;;5097115;28;20461;-84
2022/11/01 04:55:25;;;;;;;12.93;6.90;;;13.90;99.90;;;;;;5097576;28;20104;-84
2022/11/01 04:57:50;;;;;;;12.05;6.50;;;13.90;99.90;;;;;;5097474;28;20030;-80
2022/11/01 05:00:16;;;;;;;12.60;6.47;;;14.00;99.90;;;;;;5096345;28;20020;-84
2022/11/01 05:02:41;;;;;;;13.77;6.78;;;13.90;99.90;;;;;;5113411;28;20063;-85
2022/11/01 05:05:09;;;;;;;15.48;6.50;;;14.00;99.90;;;;;;5075937;28;20028;-82
2022/11/01 05:07:35;;;;;;;15.60;6.38;;;14.00;99.90;;;;;;5106219;28;20100;-83
2022/11/01 05:10:02;;;;;;;12.82;6.22;;;14.00;99.90;;;;;;5112876;28;20481;-84
2022/11/01 05:12:27;;;;;;;11.45;6.05;;;14.00;99.90;;;;;;5091889;28;20035;-82
2022/11/01 05:14:53;;;;;;;13.80;6.15;;;14.00;99.90;;;;;;5090648;28;20024;-83
2022/11/01 05:17:19;;;;;;;14.93;6.43;;;14.00;99.90;;;;;;5080161;28;20469;-82
2022/11/01 05:19:44;;;;;;;14.82;6.63;;;14.00;99.90;;;;;;5114706;28;20028;-82
2022/11/01 05:22:10;;;;;;;16.08;7.32;;;14.00;99.90;;;;;;5093460;28;20254;-84
2022/11/01 05:24:35;;;;;;;21.02;7.40;;;14.00;99.90;;;;;;5085648;28;20028;-83
2022/11/01 05:27:01;;;;;;;19.48;8.38;;;14.00;99.90;;;;;;5083372;28;20051;-82
2022/11/01 05:29:27;;;;;;;22.67;9.00;;;14.00;99.90;;;;;;5093866;28;20048;-81
2022/11/01 05:31:53;;;;;;;18.92;7.53;;;14.00;99.90;;;;;;5096219;28;20023;-79
2022/11/01 05:34:20;;;;;;;16.35;6.57;;;14.00;99.90;;;;;;5095952;28;20027;-85
2022/11/01 05:36:45;;;;;;;15.52;5.75;;;14.10;99.90;;;;;;5084317;28;20036;-83
2022/11/01 05:39:11;;;;;;;15.65;5.80;;;14.10;99.90;;;;;;5090821;28;20120;-81
2022/11/01 05:41:37;;;;;;;9.68;5.20;;;14.10;99.90;;;;;;5095623;28;20027;-82
2022/11/01 05:44:03;;;;;;;8.90;4.88;;;14.10;99.90;;;;;;5095735;28;20076;-82
2022/11/01 05:46:28;;;;;;;9.18;4.35;;;14.10;99.90;;;;;;5096158;28;20065;-81
2022/11/01 05:48:54;;;;;;;10.30;4.75;;;14.10;99.90;;;;;;5100678;28;20054;-80
2022/11/01 05:51:20;;;;;;;9.43;4.55;;;14.20;99.90;;;;;;5092378;28;20062;-82
2022/11/01 05:53:49;;;;;;;10.55;4.10;;;14.20;99.90;;;;;;5096003;28;20070;-83
2022/11/01 05:56:15;;;;;;;9.60;4.00;;;14.20;99.90;;;;;;5105869;28;20052;-82
2022/11/01 05:58:41;;;;;;;12.88;3.92;;;14.20;99.90;;;;;;5076316;28;20380;-83
2022/11/01 06:01:07;;;;;;;9.70;3.60;;;14.30;99.90;;;;;;5075302;28;20107;-83
2022/11/01 06:03:33;;;;;;;8.35;3.40;;;14.30;99.90;;;;;;5092494;28;20024;-83
2022/11/01 06:05:59;;;;;;;6.38;3.08;;;14.30;99.90;;;;;;5098245;28;20126;-83
2022/11/01 06:08:25;;;;;;;4.15;2.60;;;14.40;99.90;;;;;;5086968;28;20095;-84
2022/11/01 06:10:51;;;;;;;6.38;2.38;;;14.50;99.90;;;;;;5094926;28;20141;-85
2022/11/01 06:13:16;;;;;;;4.95;2.50;;;14.50;99.90;;;;;;5090953;28;20192;-85
2022/11/01 06:15:42;;;;;;;5.05;2.35;;;14.50;99.90;;;;;;5092554;28;20028;-83
2022/11/01 06:18:08;;;;;;;7.07;2.47;;;14.60;99.90;;;;;;5093045;28;20100;-87
2022/11/01 06:20:35;;;;;;;6.55;2.65;;;14.60;99.90;;;;;;5086442;28;20081;-87
2022/11/01 06:23:07;;;;;;;4.40;2.42;;;14.60;99.90;;;;;;5095402;28;20028;-87
2022/11/01 06:25:32;;;;;;;3.03;1.77;;;14.60;99.90;;;;;;5094301;28;20027;-88
2022/11/01 06:27:58;;;;;;;5.05;1.40;;;14.70;99.90;;;;;;5093002;28;20036;-85
2022/11/01 06:30:23;;;;;;;3.60;1.67;;;14.70;99.90;;;;;;5088475;28;20050;-87
2022/11/01 06:32:49;;;;;;;6.15;1.77;;;14.80;99.90;;;;;;5093663;28;20024;-87
2022/11/01 06:35:15;;;;;;;3.47;1.13;;;14.80;99.90;;;;;;5091801;28;20082;-87
2022/11/01 06:37:40;;;;;;;2.40;1.10;;;14.90;99.90;;;;;;5095217;28;20032;-88
2022/11/01 06:40:06;;;;;;;4.25;1.20;;;14.90;99.90;;;;;;5093071;28;20069;-88
2022/11/01 06:42:32;;;;;;;5.40;1.30;;;15.00;99.90;;;;;;5107884;28;20042;-83
2022/11/01 06:44:57;;;;;;;4.03;1.17;;;15.00;99.90;;;;;;5091594;28;20461;-81
2022/11/01 06:47:23;;;;;;;3.38;1.20;;;15.10;99.90;;;;;;5095374;28;20070;-84
2022/11/01 06:49:49;;;;;;;4.32;1.27;;;15.10;99.90;;;;;;5113530;28;20036;-83
2022/11/01 06:52:14;;;;;;;4.88;1.30;;;15.10;99.90;;;;;;5091726;28;20031;-83
2022/11/01 06:54:40;;;;;;;2.72;1.20;;;15.10;99.90;;;;;;5095958;28;20023;-83
2022/11/01 06:57:05;;;;;;;5.75;1.17;;;15.20;99.90;;;;;;5098821;28;20024;-83
2022/11/01 06:59:31;;;;;;;3.55;1.10;;;15.20;99.90;;;;;;5117612;28;20027;-83
2022/11/01 07:01:56;;;;;;;4.25;1.42;;;15.30;99.90;;;;;;5098547;28;20122;-81
2022/11/01 07:04:22;;;;;;;3.83;0.93;;;15.20;99.90;;;;;;5098173;28;20024;-82
2022/11/01 07:06:48;;;;;;;2.20;1.33;;;15.30;99.90;;;;;;5098972;28;20494;-83
2022/11/01 07:09:13;;;;;;;2.60;1.00;;;15.30;99.90;;;;;;5093230;28;20469;-83
2022/11/01 07:11:39;;;;;;;2.22;1.08;;;15.30;99.90;;;;;;5113853;28;20023;-82
2022/11/01 07:14:05;;;;;;;2.67;0.88;;;15.30;99.90;;;;;;5095027;28;20057;-82
2022/11/01 07:16:31;;;;;;;2.70;1.02;;;15.30;99.90;;;;;;5096036;28;20024;-82
2022/11/01 07:18:57;;;;;;;4.50;1.27;;;15.30;99.90;;;;;;5108271;28;20054;-79
2022/11/01 07:21:23;;;;;;;3.78;1.20;;;15.30;99.90;;;;;;5112243;28;20020;-81
2022/11/01 07:23:49;;;;;;;3.60;1.00;;;15.30;99.90;;;;;;5097926;28;20038;-81
2022/11/01 07:26:15;;;;;;;4.40;0.80;;;15.40;99.90;;;;;;5114907;28;20107;-82
2022/11/01 07:28:40;;;;;;;1.45;0.80;;;15.40;99.90;;;;;;5089646;28;20031;-80
2022/11/01 07:31:06;;;;;;;5.88;1.00;;;15.40;99.90;;;;;;5091280;28;20023;-81
2022/11/01 07:33:32;;;;;;;2.30;1.10;;;15.50;99.90;;;;;;5100017;28;20035;-83
2022/11/01 07:35:59;;;;;;;2.40;0.80;;;15.50;99.90;;;;;;5092179;28;20110;-79
2022/11/01 07:38:25;;;;;;;3.40;1.00;;;15.50;99.90;;;;;;5093051;28;20031;-82
2022/11/01 07:40:52;;;;;;;2.75;1.10;;;15.50;99.90;;;;;;5113179;28;20023;-83
2022/11/01 07:43:18;;;;;;;2.17;0.95;;;15.50;99.90;;;;;;5097215;28;20570;-82
2022/11/01 07:45:44;;;;;;;2.95;0.80;;;15.60;99.90;;;;;;5098375;28;20088;-82
2022/11/01 07:48:11;;;;;;;3.67;0.90;;;15.60;99.90;;;;;;5097667;28;20036;-83
2022/11/01 07:50:38;;;;;;;2.45;0.90;;;15.60;99.90;;;;;;5095991;28;20119;-82
2022/11/01 07:53:07;;;;;;;2.38;0.90;;;15.60;99.90;;;;;;5093204;28;20499;-81
2022/11/01 07:55:34;;;;;;;1.95;0.85;;;15.60;99.90;;;;;;5084720;28;20032;-82
2022/11/01 07:58:00;;;;;;;1.25;0.75;;;15.70;99.90;;;;;;5097156;28;20027;-79
2022/11/01 08:00:26;;;;;;;1.88;0.90;;;15.70;99.90;;;;;;5098047;28;20023;-85
2022/11/01 08:02:57;;;;;;;2.75;1.38;;;15.80;99.90;;;;;;5111567;28;20019;-83
2022/11/01 08:05:23;;;;;;;2.63;1.40;;;15.80;99.90;;;;;;5113436;28;20464;-83
2022/11/01 08:07:49;;;;;;;3.08;1.40;;;15.80;99.90;;;;;;5115833;28;20036;-83
2022/11/01 08:10:14;;;;;;;2.10;1.08;;;15.90;99.90;;;;;;5088368;28;21330;-82
2022/11/01 08:12:40;;;;;;;2.47;0.95;;;15.90;99.90;;;;;;5094372;28;20450;-84
2022/11/01 08:15:06;;;;;;;1.90;0.85;;;15.90;99.90;;;;;;5096288;28;20020;-84
2022/11/01 08:17:35;;;;;;;1.70;0.65;;;15.90;99.90;;;;;;5080117;28;20050;-81
2022/11/01 08:20:00;;;;;;;1.42;0.88;;;16.00;99.90;;;;;;5083744;28;20026;-81
2022/11/01 08:22:26;;;;;;;2.97;0.88;;;16.10;99.90;;;;;;5088146;28;20028;-85
2022/11/01 08:24:52;;;;;;;2.45;0.80;;;16.10;99.90;;;;;;5093664;28;20016;-84
2022/11/01 08:27:17;;;;;;;3.10;0.73;;;16.10;99.90;;;;;;5087069;28;20086;-78
2022/11/01 08:29:43;;;;;;;1.45;0.70;;;16.10;99.90;;;;;;5077603;28;20147;-78
2022/11/01 08:32:08;;;;;;;1.80;0.90;;;16.20;99.90;;;;;;5079517;28;20457;-78
2022/11/01 08:34:34;;;;;;;2.42;0.63;;;16.20;99.90;;;;;;5088091;28;20784;-78
2022/11/01 08:37:00;;;;;;;0.95;0.85;;;16.20;99.90;;;;;;5073290;28;20040;-80
2022/11/01 08:39:25;;;;;;;2.22;0.68;;;16.20;99.90;;;;;;5082129;28;20902;-77
2022/11/01 08:41:51;;;;;;;2.28;0.80;;;16.20;99.90;;;;;;5092978;28;20385;-77
2022/11/01 08:44:18;;;;;;;3.88;0.65;;;16.20;99.90;;;;;;5075656;28;20458;-78
2022/11/01 08:46:44;;;;;;;2.25;0.90;;;16.20;99.90;;;;;;5088652;28;20109;-79
2022/11/01 08:49:13;;;;;;;6.13;1.55;;;16.20;99.90;;;;;;5073006;28;20021;-79
2022/11/01 08:51:39;;;;;;;2.33;0.90;;;16.20;99.90;;;;;;5073580;28;20033;-78
2022/11/01 08:54:08;;;;;;;2.22;1.08;;;16.20;99.90;;;;;;5090131;28;20100;-78
2022/11/01 08:56:34;;;;;;;1.30;0.90;;;16.30;99.90;;;;;;5092648;28;20058;-78
2022/11/01 08:59:00;;;;;;;3.70;0.82;;;16.30;99.90;;;;;;5086192;28;20043;-79
2022/11/01 09:01:26;;;;;;;2.08;0.77;;;16.30;99.90;;;;;;5082911;28;20031;-77
2022/11/01 09:03:56;;;;;;;2.42;0.60;;;16.40;99.90;;;;;;5092715;28;20466;-79
2022/11/01 09:06:23;;;;;;;2.75;0.80;;;16.40;99.90;;;;;;5074015;28;20045;-77
2022/11/01 09:08:49;;;;;;;5.38;0.65;;;16.50;99.90;;;;;;5088974;28;20103;-77
2022/11/01 09:11:15;;;;;;;2.35;0.93;;;16.50;99.90;;;;;;5082613;28;20020;-76
2022/11/01 09:13:41;;;;;;;2.20;0.57;;;16.50;99.90;;;;;;5091521;28;20030;-76
2022/11/01 09:16:07;;;;;;;4.32;0.82;;;16.60;99.90;;;;;;5075463;28;20103;-80
2022/11/01 09:18:33;;;;;;;3.13;0.75;;;16.60;99.90;;;;;;5075109;28;20027;-80
2022/11/01 09:20:59;;;;;;;3.03;0.90;;;16.60;99.90;;;;;;5073027;28;20078;-81
2022/11/01 09:23:25;;;;;;;1.70;0.85;;;16.60;99.90;;;;;;5087845;28;20024;-80
2022/11/01 09:25:51;;;;;;;2.65;0.70;;;16.70;99.90;;;;;;5079384;28;20036;-80
2022/11/01 09:28:17;;;;;;;2.47;0.70;;;16.70;99.90;;;;;;5074087;28;20432;-80
2022/11/01 09:30:42;;;;;;;3.72;0.70;;;16.70;99.90;;;;;;5096861;28;20043;-80
2022/11/01 09:33:08;;;;;;;2.65;0.88;;;16.80;99.90;;;;;;5114061;28;20051;-89
2022/11/01 09:35:34;;;;;;;2.63;0.73;;;16.80;99.90;;;;;;5099298;28;20361;-91
2022/11/01 09:38:02;;;;;;;2.70;0.60;;;16.90;99.90;;;;;;5097387;28;20468;-83
2022/11/01 09:40:34;;;;;;;2.50;0.93;;;16.90;99.90;;;;;;5097903;28;20031;-90
2022/11/01 09:43:02;;;;;;;2.05;0.95;;;17.00;99.90;;;;;;5094784;28;20036;-86
2022/11/01 09:45:31;;;;;;;4.20;0.90;;;16.80;99.90;;;;;;5099315;28;20023;-90
2022/11/01 09:47:58;;;;;;;2.90;0.82;;;16.80;99.90;;;;;;5096991;28;20023;-92
2022/11/01 09:50:32;;;;;;;2.75;0.90;;;16.70;99.90;;;;;;5117944;28;20027;-91
2022/11/01 09:52:59;;;;;;;3.17;1.45;;;16.70;99.90;;;;;;5097147;28;20053;-89
2022/11/01 09:56:09;;;;;;;2.53;0.88;;;16.60;99.90;;;;;;5099337;28;20028;-91
2022/11/01 09:58:40;;;;;;;3.70;1.35;;;16.60;99.90;;;;;;5097860;28;20110;-90
2022/11/01 10:01:27;;;;;;;3.22;1.02;;;16.50;99.90;;;;;;5097968;28;20024;-88
2022/11/01 10:04:23;;;;;;;3.38;0.75;;;16.50;99.90;;;;;;5098727;28;20028;-91
2022/11/01 10:07:26;;;;;;;2.95;0.80;;;16.50;99.90;;;;;;5101921;28;20527;-90
2022/11/01 10:10:03;;;;;;;6.80;0.90;;;16.50;99.90;;;;;;5052889;28;20047;-90
2022/11/01 10:12:44;;;;;;;4.65;1.00;;;16.40;99.90;;;;;;5080121;28;20024;-91
2022/11/01 10:15:42;;;;;;;4.32;0.90;;;16.40;99.90;;;;;;5085633;28;20019;-88
2022/11/01 10:18:27;;;;;;;3.67;0.80;;;16.50;99.90;;;;;;5095309;28;20468;-89
2022/11/01 10:21:07;;;;;;;5.03;1.58;;;16.40;99.90;;;;;;5082522;28;20046;-88
2022/11/01 10:23:40;;;;;;;3.20;0.80;;;16.40;99.90;;;;;;5097707;28;20448;-90
2022/11/01 10:26:11;;;;;;;3.13;0.65;;;16.40;99.90;;;;;;5098070;28;20031;-90
2022/11/01 10:28:49;;;;;;;4.03;1.10;;;16.40;99.90;;;;;;5097093;28;20024;-89
2022/11/01 10:31:20;;;;;;;2.15;0.65;;;16.40;99.90;;;;;;5089641;28;20111;-90
2022/11/01 10:34:07;;;;;;;;;;;16.40;99.90;;;;;;5079763;28;20020;-91
2022/11/01 10:36:36;;;;;;;5.22;0.70;;;16.30;99.90;;;;;;5098128;28;19912;-90
2022/11/01 10:39:14;;;;;;;5.43;1.00;;;16.30;99.90;;;;;;5097782;28;20019;-82
2022/11/01 10:41:49;;;;;;;3.42;0.65;;;16.20;99.90;;;;;;5116329;28;20019;-90
2022/11/01 10:44:23;;;;;;;5.60;0.80;;;16.20;99.90;;;;;;5113687;28;20027;-89
2022/11/01 10:46:50;;;;;;;4.05;0.85;;;16.20;99.90;;;;;;5097190;28;20029;-90
2022/11/01 10:49:38;;;;;;;5.63;0.90;;;16.20;99.90;;;;;;5085649;28;20476;-91
2022/11/01 10:52:10;;;;;;;4.35;0.70;;;16.20;99.90;;;;;;5079232;28;20043;-84
2022/11/01 10:54:39;;;;;;;3.00;0.73;;;16.20;99.90;;;;;;5091107;28;20043;-90
2022/11/01 10:57:10;;;;;;;6.10;0.88;;;16.10;99.90;;;;;;5075356;28;20107;-90
2022/11/01 10:59:40;;;;;;;3.33;0.75;;;16.10;99.90;;;;;;5075886;28;20027;-91
2022/11/01 11:02:17;;;;;;;3.83;0.80;;;16.10;99.90;;;;;;5075167;28;20469;-90
2022/11/01 11:04:42;;;;;;;2.80;0.75;;;16.10;99.90;;;;;;5075652;28;20021;-90
2022/11/01 11:07:16;;;;;;;3.38;0.60;;;16.10;99.90;;;;;;5079511;28;20093;-89
2022/11/01 11:09:41;;;;;;;4.78;0.70;;;16.10;99.90;;;;;;5095095;28;20091;-90
2022/11/01 11:12:18;;;;;;;5.13;0.98;;;16.10;99.90;;;;;;5094555;28;20047;-90
2022/11/01 11:14:58;;;;;;;2.40;0.65;;;16.20;99.90;;;;;;5094242;28;20485;-90
2022/11/01 11:17:37;;;;;;;3.85;0.55;;;16.20;99.90;;;;;;5103676;28;20042;-90
2022/11/01 11:20:06;;;;;;;2.90;0.95;;;16.20;99.90;;;;;;5090428;28;20016;-84
2022/11/01 11:22:40;;;;;;;4.00;1.00;;;16.30;99.90;;;;;;5093049;28;20488;-86
2022/11/01 11:25:12;;;;;;;4.85;0.73;;;16.30;99.90;;;;;;5094143;28;20039;-91
2022/11/01 11:27:46;;;;;;;4.68;1.08;;;16.30;99.90;;;;;;5090568;28;20061;-93
2022/11/01 11:30:13;;;;;;;4.55;0.82;;;16.30;99.90;;;;;;5094307;28;20093;-91
2022/11/01 11:32:49;;;;;;;3.33;0.60;;;16.30;99.90;;;;;;5094983;28;20055;-89
2022/11/01 11:35:23;;;;;;;2.90;0.60;;;16.40;99.90;;;;;;5107471;28;20027;-91
2022/11/01 11:37:59;;;;;;;2.53;0.50;;;16.40;99.90;;;;;;5095031;28;20039;-91
2022/11/01 11:40:46;;;;;;;2.30;0.60;;;16.40;99.90;;;;;;5110404;28;20099;-83
2022/11/01 11:43:40;;;;;;;2.25;0.55;;;16.50;99.90;;;;;;5089645;28;20489;-84
2022/11/01 11:46:14;;;;;;;6.13;0.68;;;16.50;99.90;;;;;;5097120;28;20415;-79
2022/11/01 11:49:00;;;;;;;21.83;13.82;;;16.60;99.90;;;;;;5115296;28;20032;-81
2022/11/01 11:51:31;;;;;;;4.30;1.48;;;16.90;99.90;;;;;;5114514;28;20024;-80
2022/11/01 11:54:15;;;;;;;5.15;1.33;;;16.90;99.90;;;;;;5096561;28;20033;-79
2022/11/01 11:56:43;;;;;;;3.17;0.88;;;17.10;99.90;;;;;;5077859;28;20085;-80
2022/11/01 11:59:20;;;;;;;6.45;0.82;;;17.00;99.90;;;;;;5082286;28;20377;-79
2022/11/01 12:01:46;;;;;;;2.60;0.80;;;17.10;99.90;;;;;;5089870;28;20027;-80
2022/11/01 12:04:17;;;;;;;5.28;0.60;;;17.30;99.90;;;;;;5097793;28;20049;-79
2022/11/01 12:06:44;;;;;;;2.72;0.60;;;17.30;99.90;;;;;;5094156;28;20431;-79
2022/11/01 12:09:36;;;;;;;5.10;0.60;;;17.20;99.90;;;;;;5077240;28;20063;-80
2022/11/01 12:12:15;;;;;;;1.17;0.52;;;17.20;99.90;;;;;;5094865;28;20026;-79
2022/11/01 12:14:41;;;;;;;3.80;0.50;;;17.00;99.90;;;;;;5092799;28;20472;-79
2022/11/01 12:17:27;;;;;;;3.67;0.70;;;16.90;99.90;;;;;;5102618;28;20069;-79
2022/11/01 12:20:18;;;;;;;2.00;0.75;;;16.80;99.90;;;;;;5097979;28;20126;-79
2022/11/01 12:23:13;;;;;;;2.92;0.60;;;16.80;99.90;;;;;;5078227;28;20073;-79
2022/11/01 12:25:43;;;;;;;2.95;0.90;;;16.90;99.90;;;;;;5077010;28;20032;-78
2022/11/01 12:28:39;;;;;;;3.45;0.60;;;17.20;99.90;;;;;;5083601;28;20020;-78
2022/11/01 12:31:16;;;;;;;5.30;0.65;;;17.60;99.90;;;;;;5082190;28;20062;-79
2022/11/01 12:33:53;;;;;;;1.60;0.30;;;18.50;99.90;;;;;;5097536;28;20110;-80
2022/11/01 12:36:43;;;;;;;2.40;0.60;;;19.10;99.90;;;;;;5094731;28;20037;-80
2022/11/01 12:39:27;;;;;;;4.03;0.70;;;19.40;99.90;;;;;;5094998;28;20047;-79
2022/11/01 12:42:02;;;;;;;6.25;0.63;;;19.40;99.90;;;;;;5095402;28;20048;-79
2022/11/01 12:44:57;;;;;;;2.53;0.63;;;20.40;99.90;;;;;;5096321;28;20031;-80
2022/11/01 12:47:29;;;;;;;3.85;0.90;;;20.20;99.60;;;;;;5007893;28;20042;-81
2022/11/01 12:50:00;;;;;;;6.43;0.60;;;20.30;99.80;;;;;;5096810;28;20023;-77
2022/11/01 12:52:28;;;;;;;2.60;0.50;;;20.90;98.00;;;;;;5111444;28;20149;-77
2022/11/01 12:55:19;;;;;;;3.58;0.75;;;21.40;97.30;;;;;;5108677;28;20043;-77
2022/11/01 12:57:45;;;;;;;5.87;0.60;;;21.20;95.40;;;;;;5089673;28;20040;-78
2022/11/01 13:00:16;;;;;;;6.65;0.70;;;20.40;97.30;;;;;;5113822;28;20024;-78
2022/11/01 13:03:15;;;;;;;5.70;0.90;;;20.30;97.10;;;;;;5075968;28;20016;-77
2022/11/01 13:05:43;;;;;;;3.40;0.80;;;20.10;97.40;;;;;;5088154;28;20529;-78